Time;durP1;ratioP1;P1;durP2;ratioP2;P2;SDS_P1;SDS_P2;PMS_P1;PMS_P2;Temp;Humidity;BMP_temperature;BMP_pressure;BME280_temperature;BME280_humidity;BME280_pressure;Samples;Min_cycle;Max_cycle;Signal;HPM_P1;HPM_P2
2023/01/21 00:02:21;;;;;;;33.67;14.48;;;;;;;-1.11;93.04;98573.41;5058472;28;20076;-84
2023/01/21 00:04:47;;;;;;;30.92;13.80;;;;;;;-1.09;93.16;98577.50;5058580;28;20032;-84
2023/01/21 00:07:12;;;;;;;26.52;12.82;;;;;;;-1.06;93.15;98573.88;5067547;28;20142;-84
2023/01/21 00:09:38;;;;;;;25.45;12.60;;;;;;;-1.15;92.74;98574.56;5060878;28;20384;-84
2023/01/21 00:12:04;;;;;;;24.98;13.35;;;;;;;-1.11;92.69;98578.56;5065838;28;20074;-84
2023/01/21 00:14:30;;;;;;;28.55;14.02;;;;;;;-1.20;93.11;98568.91;5051838;28;20029;-84
2023/01/21 00:16:57;;;;;;;28.92;14.55;;;;;;;-1.18;93.35;98579.94;5053181;28;20082;-85
2023/01/21 00:19:27;;;;;;;27.63;13.48;;;;;;;-1.11;93.32;98575.97;5057797;28;20119;-85
2023/01/21 00:21:53;;;;;;;25.48;12.82;;;;;;;-1.08;93.04;98586.03;5057920;28;20621;-85
2023/01/21 00:24:21;;;;;;;27.10;13.88;;;;;;;-0.96;92.71;98585.16;5064821;28;20033;-85
2023/01/21 00:26:47;;;;;;;19.80;11.25;;;;;;;-0.79;92.14;98589.00;5051899;28;20040;-85
2023/01/21 00:29:13;;;;;;;23.20;12.50;;;;;;;-0.66;91.33;98592.31;5061424;28;20036;-84
2023/01/21 00:31:38;;;;;;;25.42;12.15;;;;;;;-0.72;90.78;98590.19;5059956;28;20033;-84
2023/01/21 00:34:04;;;;;;;22.98;12.02;;;;;;;-0.95;91.21;98599.66;5061807;28;20040;-84
2023/01/21 00:36:29;;;;;;;24.50;11.60;;;;;;;-1.09;91.72;98594.69;5057726;28;20041;-84
2023/01/21 00:38:56;;;;;;;23.75;12.38;;;;;;;-1.01;92.22;98594.97;5061588;28;20060;-84
2023/01/21 00:41:25;;;;;;;24.13;11.85;;;;;;;-1.02;92.12;98587.31;5059214;28;20102;-84
2023/01/21 00:43:51;;;;;;;23.10;11.25;;;;;;;-0.76;91.81;98604.25;5062279;28;20392;-85
2023/01/21 00:46:18;;;;;;;23.65;11.93;;;;;;;-0.65;90.97;98598.28;5063381;28;20119;-85
2023/01/21 00:48:44;;;;;;;19.27;10.18;;;;;;;-0.68;90.46;98596.75;5058383;28;20043;-84
2023/01/21 00:51:10;;;;;;;26.63;11.95;;;;;;;-0.92;90.66;98599.41;5069201;28;20067;-84
2023/01/21 00:53:40;;;;;;;26.25;13.07;;;;;;;-1.08;91.37;98593.75;5054774;28;20053;-84
2023/01/21 00:56:11;;;;;;;27.42;12.52;;;;;;;-1.07;91.44;98605.72;5064791;28;20024;-85
2023/01/21 00:58:37;;;;;;;24.98;13.05;;;;;;;-1.18;91.41;98598.78;5068333;28;20033;-85
2023/01/21 01:01:09;;;;;;;22.27;10.25;;;;;;;-0.91;91.37;98601.03;5058243;28;20029;-84
2023/01/21 01:03:39;;;;;;;20.17;11.02;;;;;;;-0.71;90.64;98617.59;5060894;28;20532;-84
2023/01/21 01:06:13;;;;;;;27.55;11.68;;;;;;;-0.53;90.48;98615.38;5064434;28;20024;-85
2023/01/21 01:08:38;;;;;;;24.17;10.05;;;;;;;-0.54;89.27;98618.88;5063477;28;20116;-85
2023/01/21 01:11:04;;;;;;;25.90;11.98;;;;;;;-0.65;88.92;98618.88;5058144;28;20413;-85
2023/01/21 01:13:32;;;;;;;23.88;11.48;;;;;;;-0.93;89.41;98613.22;5062306;28;20032;-84
2023/01/21 01:15:58;;;;;;;22.45;11.65;;;;;;;-0.90;90.42;98628.47;5058689;28;20119;-84
2023/01/21 01:18:26;;;;;;;20.02;10.95;;;;;;;-0.98;90.69;98612.75;5057130;28;20484;-84
2023/01/21 01:20:52;;;;;;;19.92;9.68;;;;;;;-0.87;90.61;98633.38;5059637;28;20040;-84
2023/01/21 01:23:18;;;;;;;20.58;11.02;;;;;;;-0.87;90.37;98622.25;5052270;28;20061;-85
2023/01/21 01:25:43;;;;;;;20.13;10.27;;;;;;;-0.79;90.10;98632.78;5053352;28;20032;-84
2023/01/21 01:28:09;;;;;;;22.95;11.07;;;;;;;-0.78;90.10;98628.44;5062557;28;20033;-84
2023/01/21 01:30:35;;;;;;;21.20;10.80;;;;;;;-0.99;90.26;98634.28;5065589;28;20051;-84
2023/01/21 01:33:02;;;;;;;24.85;10.90;;;;;;;-0.92;90.48;98632.88;5055952;28;20061;-84
2023/01/21 01:35:27;;;;;;;20.17;10.48;;;;;;;-0.98;89.99;98629.94;5061636;28;20116;-84
2023/01/21 01:37:53;;;;;;;25.30;11.82;;;;;;;-0.98;90.28;98640.25;5059168;28;20486;-85
2023/01/21 01:40:19;;;;;;;19.52;9.32;;;;;;;-0.87;89.93;98637.69;5069646;28;20476;-84
2023/01/21 01:42:45;;;;;;;18.80;9.48;;;;;;;-0.71;89.39;98642.53;5056133;28;20038;-85
2023/01/21 01:45:13;;;;;;;22.33;10.73;;;;;;;-0.69;88.96;98635.50;5054953;28;20029;-86
2023/01/21 01:47:57;;;;;;;19.80;9.93;;;;;;;-0.77;88.96;98632.69;5070278;28;20039;-85
2023/01/21 01:50:31;;;;;;;19.00;10.18;;;;;;;-0.83;89.01;98639.13;5058792;28;20044;-86
2023/01/21 01:53:00;;;;;;;24.05;11.20;;;;;;;-0.76;88.97;98642.06;5062941;28;20029;-86
2023/01/21 01:55:29;;;;;;;21.02;10.80;;;;;;;-0.77;88.62;98628.34;5058462;28;20048;-86
2023/01/21 01:57:56;;;;;;;23.65;10.10;;;;;;;-0.70;88.10;98639.03;5056845;28;20086;-86
2023/01/21 02:00:24;;;;;;;20.70;10.50;;;;;;;-0.65;88.02;98647.22;5065450;28;20040;-86
2023/01/21 02:05:40;;;;;;;23.25;9.80;;;;;;;-0.79;87.37;98637.13;5056061;28;20495;-86
2023/01/21 02:08:07;;;;;;;22.20;10.48;;;;;;;-0.75;87.48;98641.13;5056753;28;20044;-85
2023/01/21 02:10:33;;;;;;;20.63;10.23;;;;;;;-0.69;87.22;98641.47;5062881;28;20105;-85
2023/01/21 02:13:00;;;;;;;19.73;9.82;;;;;;;-0.69;87.07;98646.63;5051709;28;20404;-85
2023/01/21 02:16:00;;;;;;;21.23;11.02;;;;;;;-0.70;86.47;98650.16;5054877;28;20531;-85
2023/01/21 02:18:52;;;;;;;18.20;9.30;;;;;;;-0.70;86.48;98644.16;5065702;28;20036;-85
2023/01/21 02:21:35;;;;;;;18.95;9.93;;;;;;;-0.67;86.04;98647.31;5049795;28;20047;-86
2023/01/21 02:24:32;;;;;;;21.40;10.77;;;;;;;-0.64;85.73;98646.28;5057403;28;20111;-86
2023/01/21 02:27:34;;;;;;;15.68;8.18;;;;;;;-0.71;85.58;98645.13;5060082;28;20046;-85
2023/01/21 02:30:45;;;;;;;20.48;11.25;;;;;;;-0.95;85.77;98637.47;5061814;28;20021;-85
2023/01/21 02:33:51;;;;;;;20.27;9.88;;;;;;;-0.95;86.17;98640.84;5057777;28;20044;-85
2023/01/21 02:37:03;;;;;;;22.17;10.15;;;;;;;-0.91;86.45;98634.53;5053980;28;20044;-85
2023/01/21 02:39:53;;;;;;;17.75;8.93;;;;;;;-0.91;86.05;98629.38;5056931;28;20037;-85
2023/01/21 02:42:51;;;;;;;17.80;8.75;;;;;;;-0.93;86.30;98638.97;5065488;28;20043;-86
2023/01/21 02:45:44;;;;;;;21.70;9.95;;;;;;;-0.92;85.97;98630.31;5073338;28;20028;-85
2023/01/21 02:48:21;;;;;;;19.50;8.85;;;;;;;-1.07;85.68;98636.59;5062389;28;20078;-85
2023/01/21 02:50:55;;;;;;;17.90;9.13;;;;;;;-1.14;85.68;98636.25;5053752;28;20078;-85
2023/01/21 02:53:27;;;;;;;16.52;9.20;;;;;;;-1.31;86.03;98646.13;5054541;28;20100;-85
2023/01/21 02:55:57;;;;;;;16.83;8.13;;;;;;;-1.33;87.16;98643.63;5056081;28;20056;-85
2023/01/21 02:58:32;;;;;;;17.27;7.88;;;;;;;-1.39;87.02;98641.50;5068960;28;20033;-85
2023/01/21 03:01:12;;;;;;;18.60;9.23;;;;;;;-1.26;87.29;98641.44;5059385;28;20060;-85
2023/01/21 03:03:46;;;;;;;18.47;8.13;;;;;;;-1.11;86.98;98645.47;5089691;28;20030;-85
2023/01/21 03:06:54;;;;;;;17.02;8.38;;;;;;;-1.06;86.53;98648.53;5071991;28;20415;-85
2023/01/21 03:09:25;;;;;;;18.88;7.78;;;;;;;-1.03;85.71;98648.31;5054099;28;20039;-85
2023/01/21 03:12:38;;;;;;;15.63;7.68;;;;;;;-1.10;85.48;98644.53;5068607;28;20065;-85
2023/01/21 03:18:15;;;;;;;14.95;7.95;;;;;;;-1.01;85.61;98654.19;5073211;28;20518;-85
2023/01/21 03:20:57;;;;;;;18.90;8.88;;;;;;;-0.99;85.39;98649.72;5055211;28;20029;-85
2023/01/21 03:23:31;;;;;;;15.60;7.90;;;;;;;-0.97;85.44;98657.34;5061245;28;20063;-86
2023/01/21 03:25:59;;;;;;;19.73;9.32;;;;;;;-1.01;85.28;98643.88;5057064;28;20085;-85
2023/01/21 03:28:32;;;;;;;19.92;9.02;;;;;;;-0.94;85.52;98647.63;5061872;28;20582;-85
2023/01/21 03:31:17;;;;;;;16.80;8.93;;;;;;;-0.96;85.16;98657.25;5060161;28;20555;-85
2023/01/21 03:33:47;;;;;;;17.80;9.60;;;;;;;-0.92;85.33;98653.47;5061433;28;20090;-85
2023/01/21 03:36:31;;;;;;;19.55;8.77;;;;;;;-0.93;85.04;98654.44;5063434;28;20120;-85
2023/01/21 03:39:01;;;;;;;15.63;8.52;;;;;;;-0.92;85.13;98652.66;5062060;28;20029;-86
2023/01/21 03:41:35;;;;;;;18.55;8.80;;;;;;;-0.91;84.93;98654.31;5064216;28;20609;-85
2023/01/21 03:44:03;;;;;;;15.07;8.13;;;;;;;-1.01;84.75;98645.63;5062856;28;20045;-85
2023/01/21 03:46:44;;;;;;;19.15;9.30;;;;;;;-1.22;85.19;98642.88;5065991;28;20098;-85
2023/01/21 03:49:27;;;;;;;15.60;8.13;;;;;;;-1.17;85.58;98640.78;5064319;28;20131;-86
2023/01/21 03:51:58;;;;;;;18.00;9.00;;;;;;;-1.20;86.04;98636.69;5068952;28;20036;-85
2023/01/21 03:54:23;;;;;;;14.70;8.27;;;;;;;-1.15;85.74;98638.91;5056881;28;20037;-85
2023/01/21 03:56:49;;;;;;;16.08;8.02;;;;;;;-1.04;85.77;98645.84;5053011;28;20090;-86
2023/01/21 03:59:14;;;;;;;18.95;9.38;;;;;;;-1.01;85.54;98641.31;5060882;28;20052;-85
2023/01/21 04:01:40;;;;;;;19.77;10.00;;;;;;;-1.08;84.92;98632.38;5058743;28;20382;-86
2023/01/21 04:04:08;;;;;;;19.25;9.10;;;;;;;-0.97;85.07;98650.44;5062796;28;20642;-85
2023/01/21 04:06:35;;;;;;;16.90;8.55;;;;;;;-0.96;84.89;98648.66;5070160;28;20371;-85
2023/01/21 04:09:04;;;;;;;19.60;10.50;;;;;;;-1.02;85.11;98639.66;5070332;28;20037;-86
2023/01/21 04:11:33;;;;;;;18.30;9.52;;;;;;;-1.06;85.26;98643.41;5058001;28;20402;-86
2023/01/21 04:13:58;;;;;;;20.77;10.10;;;;;;;-1.02;85.79;98649.97;5073096;28;20420;-85
2023/01/21 04:16:24;;;;;;;22.85;9.23;;;;;;;-1.01;85.93;98651.59;5060102;28;20099;-85
2023/01/21 04:18:49;;;;;;;20.38;9.98;;;;;;;-1.03;85.73;98644.91;5072544;28;20643;-85
2023/01/21 04:21:15;;;;;;;17.83;8.95;;;;;;;-1.07;85.86;98644.34;5064369;28;20527;-85
2023/01/21 04:23:40;;;;;;;17.73;9.32;;;;;;;-1.04;85.74;98640.69;5052291;28;20033;-85
2023/01/21 04:26:06;;;;;;;18.23;9.88;;;;;;;-1.03;85.71;98643.16;5056383;28;20029;-85
2023/01/21 04:28:32;;;;;;;16.90;8.88;;;;;;;-0.95;86.15;98646.00;5059563;28;20489;-85
2023/01/21 04:30:58;;;;;;;23.23;10.50;;;;;;;-0.94;85.82;98647.63;5066544;28;20041;-85
2023/01/21 04:33:24;;;;;;;20.90;10.15;;;;;;;-0.96;86.03;98644.38;5067414;28;20031;-85
2023/01/21 04:35:50;;;;;;;19.50;9.68;;;;;;;-0.87;85.72;98646.25;5054262;28;20115;-85
2023/01/21 04:38:16;;;;;;;20.85;9.85;;;;;;;-0.81;85.57;98644.97;5064996;28;20033;-85
2023/01/21 04:40:41;;;;;;;20.55;10.00;;;;;;;-0.78;85.63;98644.75;5059996;28;20033;-85
2023/01/21 04:43:07;;;;;;;18.95;9.65;;;;;;;-0.74;85.44;98648.72;5051820;28;20044;-85
2023/01/21 04:45:32;;;;;;;20.08;10.38;;;;;;;-0.78;85.09;98644.75;5056164;28;20040;-85
2023/01/21 04:47:59;;;;;;;19.67;10.80;;;;;;;-0.78;84.96;98654.22;5070333;28;20094;-85
2023/01/21 04:50:25;;;;;;;20.08;10.15;;;;;;;-0.82;84.99;98648.47;5052745;28;20033;-85
2023/01/21 04:52:50;;;;;;;25.52;11.15;;;;;;;-0.85;85.36;98646.94;5065475;28;20035;-85
2023/01/21 04:55:16;;;;;;;25.02;10.85;;;;;;;-0.75;85.31;98643.69;5058880;28;20520;-85
2023/01/21 04:57:41;;;;;;;20.45;10.30;;;;;;;-0.78;84.98;98637.03;5056902;28;20028;-85
2023/01/21 05:00:08;;;;;;;25.90;10.25;;;;;;;-0.76;85.27;98640.28;5064186;28;20032;-85
2023/01/21 05:02:34;;;;;;;18.17;9.15;;;;;;;-0.69;85.20;98645.81;5071237;28;20046;-85
2023/01/21 05:04:59;;;;;;;21.00;9.52;;;;;;;-0.61;85.34;98646.03;5062719;28;20504;-85
2023/01/21 05:07:25;;;;;;;21.55;9.80;;;;;;;-0.63;85.44;98651.31;5065978;28;20035;-85
2023/01/21 05:09:51;;;;;;;23.35;10.65;;;;;;;-0.66;85.46;98643.84;5055599;28;20444;-85
2023/01/21 05:12:17;;;;;;;26.90;11.80;;;;;;;-0.63;85.65;98655.66;5061523;28;20036;-85
2023/01/21 05:14:42;;;;;;;23.85;11.27;;;;;;;-0.74;85.51;98647.91;5061584;28;20050;-85
2023/01/21 05:17:10;;;;;;;20.60;10.27;;;;;;;-0.63;86.17;98650.50;5064712;28;20124;-85
2023/01/21 05:19:35;;;;;;;20.48;10.43;;;;;;;-0.68;86.03;98650.84;5062716;28;20116;-85
2023/01/21 05:22:01;;;;;;;22.50;10.90;;;;;;;-0.64;85.97;98651.44;5065338;28;20037;-85
2023/01/21 05:24:26;;;;;;;26.05;11.07;;;;;;;-0.71;86.15;98645.94;5058822;28;20060;-85
2023/01/21 05:26:52;;;;;;;23.27;10.60;;;;;;;-0.67;86.32;98649.91;5059130;28;20041;-85
2023/01/21 05:29:18;;;;;;;25.30;10.75;;;;;;;-0.70;86.42;98654.47;5057682;28;20037;-85
2023/01/21 05:31:44;;;;;;;22.15;9.70;;;;;;;-0.71;86.68;98652.84;5050240;28;20131;-85
2023/01/21 05:34:10;;;;;;;23.58;11.05;;;;;;;-0.74;86.88;98659.03;5059733;28;20072;-85
2023/01/21 05:36:37;;;;;;;26.70;10.77;;;;;;;-0.79;86.98;98662.88;5054607;28;20033;-85
2023/01/21 05:39:03;;;;;;;26.00;11.27;;;;;;;-0.79;87.11;98665.44;5053837;28;20069;-85
2023/01/21 05:41:29;;;;;;;23.30;11.13;;;;;;;-0.82;87.07;98667.34;5063253;28;20526;-85
2023/01/21 05:43:55;;;;;;;24.30;11.13;;;;;;;-0.73;87.32;98662.41;5063996;28;20041;-85
2023/01/21 05:46:20;;;;;;;27.30;11.20;;;;;;;-0.71;87.16;98663.16;5055099;28;20099;-85
2023/01/21 05:48:46;;;;;;;16.05;9.27;;;;;;;-0.78;86.87;98667.09;5051657;28;20120;-85
2023/01/21 05:51:11;;;;;;;23.45;10.63;;;;;;;-0.79;86.80;98673.19;5067696;28;20025;-85
2023/01/21 05:53:37;;;;;;;20.60;10.52;;;;;;;-0.75;86.96;98672.84;5059665;28;20060;-85
2023/01/21 05:56:02;;;;;;;23.75;11.30;;;;;;;-0.71;86.97;98670.88;5058683;28;20128;-85
2023/01/21 05:58:28;;;;;;;22.10;10.00;;;;;;;-0.63;86.73;98671.09;5062612;28;20048;-85
2023/01/21 06:00:57;;;;;;;20.75;10.57;;;;;;;-0.49;86.72;98676.03;5061186;28;20049;-85
2023/01/21 06:03:23;;;;;;;23.67;11.20;;;;;;;-0.44;86.35;98668.78;5057252;28;20688;-85
2023/01/21 06:05:55;;;;;;;22.80;10.60;;;;;;;-0.35;85.63;98680.16;5065745;28;20032;-85
2023/01/21 06:08:22;;;;;;;25.67;12.65;;;;;;;-0.31;85.53;98682.38;5058827;28;20109;-85
2023/01/21 06:10:47;;;;;;;24.42;11.57;;;;;;;-0.33;85.43;98679.09;5065982;28;20064;-85
2023/01/21 06:13:14;;;;;;;28.02;12.68;;;;;;;-0.29;85.12;98683.09;5054833;28;20065;-85
2023/01/21 06:15:40;;;;;;;24.33;11.27;;;;;;;-0.31;84.94;98686.72;5056926;28;20029;-85
2023/01/21 06:18:06;;;;;;;22.58;10.73;;;;;;;-0.33;84.96;98684.25;5058250;28;20033;-85
2023/01/21 06:20:33;;;;;;;23.27;10.15;;;;;;;-0.30;85.35;98684.03;5058231;28;20832;-85
2023/01/21 06:23:02;;;;;;;24.38;11.82;;;;;;;-0.36;85.29;98688.81;5059946;28;20041;-85
2023/01/21 06:25:27;;;;;;;29.00;13.25;;;;;;;-0.37;85.47;98671.72;5054276;28;20482;-85
2023/01/21 06:27:54;;;;;;;25.02;11.07;;;;;;;-0.31;85.49;98684.94;5066102;28;20068;-85
2023/01/21 06:30:21;;;;;;;24.35;11.43;;;;;;;-0.26;85.22;98689.75;5060971;28;20029;-85
2023/01/21 06:32:47;;;;;;;21.77;11.05;;;;;;;-0.35;85.24;98700.78;5063454;28;20052;-85
2023/01/21 06:35:12;;;;;;;23.85;11.13;;;;;;;-0.25;85.58;98682.84;5073401;28;20036;-85
2023/01/21 06:37:38;;;;;;;21.92;10.48;;;;;;;-0.32;85.42;98703.94;5069633;28;20698;-85
2023/01/21 06:40:04;;;;;;;20.48;10.57;;;;;;;-0.33;85.22;98692.00;5063709;28;20376;-85
2023/01/21 06:42:30;;;;;;;25.67;11.30;;;;;;;-0.31;85.64;98697.03;5059632;28;20044;-85
2023/01/21 06:44:55;;;;;;;20.08;10.13;;;;;;;-0.25;85.44;98701.72;5063572;28;20383;-85
2023/01/21 06:47:21;;;;;;;21.17;10.27;;;;;;;-0.20;85.06;98702.19;5068736;28;20123;-85
2023/01/21 06:49:46;;;;;;;23.77;11.30;;;;;;;-0.24;84.90;98697.38;5066678;28;20037;-85
2023/01/21 06:52:12;;;;;;;24.65;10.77;;;;;;;-0.23;84.98;98699.03;5064548;28;20040;-85
2023/01/21 06:54:37;;;;;;;25.83;10.93;;;;;;;-0.38;85.33;98686.34;5061737;28;20044;-85
2023/01/21 06:57:03;;;;;;;21.08;10.52;;;;;;;-0.51;85.87;98688.22;5064689;28;20044;-84
2023/01/21 06:59:28;;;;;;;22.92;11.20;;;;;;;-0.41;86.00;98694.34;5060906;28;20044;-85
2023/01/21 07:01:57;;;;;;;24.77;11.15;;;;;;;-0.40;85.66;98698.56;5054454;28;20116;-85
2023/01/21 07:04:24;;;;;;;23.50;11.63;;;;;;;-0.43;85.66;98703.91;5056933;28;20068;-84
2023/01/21 07:06:50;;;;;;;24.55;10.80;;;;;;;-0.47;85.56;98706.88;5056404;28;20071;-84
2023/01/21 07:09:16;;;;;;;21.67;9.63;;;;;;;-0.45;85.58;98712.72;5067373;28;20052;-84
2023/01/21 07:11:41;;;;;;;23.80;10.77;;;;;;;-0.35;85.83;98721.41;5065990;28;21455;-84
2023/01/21 07:14:07;;;;;;;22.80;10.00;;;;;;;-0.45;85.37;98708.38;5062912;28;20039;-84
2023/01/21 07:16:32;;;;;;;18.90;10.45;;;;;;;-0.26;85.52;98725.84;5065020;28;20032;-84
2023/01/21 07:18:58;;;;;;;23.02;10.38;;;;;;;-0.22;85.10;98722.13;5059746;28;20124;-84
2023/01/21 07:21:24;;;;;;;23.80;10.98;;;;;;;-0.21;85.17;98716.03;5060896;28;20372;-84
2023/01/21 07:23:53;;;;;;;26.13;11.27;;;;;;;-0.30;84.90;98701.22;5063997;28;20043;-84
2023/01/21 07:26:19;;;;;;;18.92;10.05;;;;;;;-0.17;84.84;98725.16;5062616;28;20039;-84
2023/01/21 07:28:45;;;;;;;24.23;9.77;;;;;;;-0.25;84.94;98724.09;5062533;28;20508;-83
2023/01/21 07:31:10;;;;;;;22.00;10.63;;;;;;;-0.19;85.33;98723.63;5061675;28;20043;-84
2023/01/21 07:33:36;;;;;;;24.48;11.05;;;;;;;-0.25;85.00;98729.25;5057310;28;20042;-84
2023/01/21 07:36:02;;;;;;;22.42;11.40;;;;;;;-0.27;85.16;98729.38;5061718;28;20032;-84
2023/01/21 07:38:27;;;;;;;19.65;10.25;;;;;;;-0.12;85.17;98724.81;5060595;28;20036;-83
2023/01/21 07:40:53;;;;;;;22.23;10.32;;;;;;;-0.08;84.87;98726.22;5055217;28;20037;-84
2023/01/21 07:43:18;;;;;;;23.42;10.88;;;;;;;-0.05;84.49;98723.41;5065459;28;20613;-83
2023/01/21 07:45:44;;;;;;;18.08;8.93;;;;;;;-0.11;84.10;98729.03;5070305;28;20028;-84
2023/01/21 07:48:10;;;;;;;20.95;10.65;;;;;;;-0.18;84.50;98731.28;5056186;28;20036;-83
2023/01/21 07:50:36;;;;;;;20.83;9.88;;;;;;;-0.21;84.58;98722.94;5067081;28;20036;-83
2023/01/21 07:53:03;;;;;;;22.23;10.20;;;;;;;-0.15;84.74;98730.22;5058863;28;20040;-83
2023/01/21 07:55:30;;;;;;;20.52;10.75;;;;;;;-0.07;84.39;98731.25;5064193;28;20128;-83
2023/01/21 07:57:57;;;;;;;19.05;9.65;;;;;;;0.02;84.15;98731.50;5056944;28;20040;-83
2023/01/21 08:00:26;;;;;;;18.08;9.60;;;;;;;-0.18;84.35;98722.69;5065598;28;20025;-83
2023/01/21 08:02:55;;;;;;;24.40;10.75;;;;;;;-0.33;84.45;98714.38;5060394;28;20065;-84
2023/01/21 08:05:23;;;;;;;21.80;10.25;;;;;;;-0.28;84.91;98723.41;5063452;28;20040;-83
2023/01/21 08:07:50;;;;;;;20.92;9.32;;;;;;;-0.20;84.82;98714.25;5062998;28;20480;-83
2023/01/21 08:10:18;;;;;;;20.50;9.82;;;;;;;-0.22;84.59;98721.31;5065189;28;20700;-84
2023/01/21 08:12:43;;;;;;;16.58;9.43;;;;;;;-0.24;84.64;98718.84;5068948;28;20426;-83
2023/01/21 08:15:10;;;;;;;20.15;9.90;;;;;;;-0.08;84.65;98719.31;5061323;28;20036;-84
2023/01/21 08:17:42;;;;;;;18.17;9.20;;;;;;;0.12;84.34;98719.53;5061561;28;20144;-83
2023/01/21 08:20:09;;;;;;;18.92;9.95;;;;;;;0.08;83.56;98728.47;5060490;28;20094;-84
2023/01/21 08:22:36;;;;;;;18.92;9.23;;;;;;;0.03;83.66;98726.22;5059452;28;20090;-84
2023/01/21 08:25:03;;;;;;;18.80;8.98;;;;;;;0.08;83.96;98729.28;5065763;28;20492;-83
2023/01/21 08:27:28;;;;;;;20.55;9.90;;;;;;;0.22;84.03;98726.44;5060358;28;20040;-84
2023/01/21 08:29:53;;;;;;;18.23;9.30;;;;;;;0.34;84.03;98739.34;5059016;28;20036;-84
2023/01/21 08:32:19;;;;;;;20.52;9.65;;;;;;;0.46;83.45;98735.78;5058150;28;20028;-83
2023/01/21 08:34:45;;;;;;;20.20;9.93;;;;;;;0.58;82.68;98732.25;5057742;28;20099;-84
2023/01/21 08:37:10;;;;;;;20.58;9.45;;;;;;;0.60;82.25;98738.13;5059719;28;20064;-83
2023/01/21 08:39:36;;;;;;;19.02;9.45;;;;;;;0.67;82.06;98744.44;5062508;28;20086;-83
2023/01/21 08:42:01;;;;;;;17.80;9.07;;;;;;;0.71;82.47;98738.06;5058687;28;20518;-83
2023/01/21 08:44:27;;;;;;;19.98;9.70;;;;;;;0.81;82.10;98733.00;5061662;28;20037;-83
2023/01/21 08:46:52;;;;;;;17.50;9.57;;;;;;;0.86;81.81;98737.81;5058567;28;20048;-83
2023/01/21 08:49:18;;;;;;;20.13;10.20;;;;;;;0.86;81.59;98740.41;5062203;28;20074;-83
2023/01/21 08:51:43;;;;;;;21.48;10.50;;;;;;;0.85;80.72;98746.50;5064181;28;20036;-83
2023/01/21 08:54:09;;;;;;;17.92;8.85;;;;;;;0.90;80.89;98749.53;5056705;28;20052;-84
2023/01/21 08:56:35;;;;;;;17.85;9.00;;;;;;;1.04;81.58;98760.41;5059812;28;20040;-84
2023/01/21 08:59:01;;;;;;;16.67;9.20;;;;;;;0.90;80.31;98746.94;5060514;28;20060;-84
2023/01/21 09:01:28;;;;;;;19.27;9.65;;;;;;;0.96;81.06;98746.44;5059096;28;20059;-83
2023/01/21 09:03:59;;;;;;;22.33;10.95;;;;;;;1.05;80.72;98756.88;5064577;28;20039;-83
2023/01/21 09:06:28;;;;;;;20.05;10.60;;;;;;;1.15;80.78;98766.50;5062801;28;20035;-83
2023/01/21 09:08:55;;;;;;;20.85;11.02;;;;;;;1.19;80.41;98755.75;5055543;28;20037;-83
2023/01/21 09:11:21;;;;;;;19.23;10.20;;;;;;;1.29;80.83;98763.59;5060804;28;20033;-83
2023/01/21 09:13:47;;;;;;;22.05;10.02;;;;;;;1.46;80.99;98772.56;5062857;28;20496;-84
2023/01/21 09:16:17;;;;;;;22.75;11.27;;;;;;;1.67;80.39;98781.13;5064119;28;20040;-83
2023/01/21 09:18:44;;;;;;;20.48;10.05;;;;;;;1.76;79.87;98772.63;5054120;28;20475;-84
2023/01/21 09:21:10;;;;;;;18.40;8.90;;;;;;;1.78;78.86;98768.13;5057459;28;20025;-84
2023/01/21 09:23:38;;;;;;;20.20;9.88;;;;;;;1.67;77.44;98778.53;5060797;28;20634;-84
2023/01/21 09:26:30;;;;;;;18.52;9.68;;;;;;;1.60;77.81;98787.75;5064951;28;20036;-84
2023/01/21 09:28:58;;;;;;;22.17;9.85;;;;;;;1.58;77.63;98795.66;5055644;28;20048;-84
2023/01/21 09:31:26;;;;;;;22.67;10.25;;;;;;;1.49;78.03;98795.56;5057215;28;20036;-84
2023/01/21 09:34:01;;;;;;;18.60;9.27;;;;;;;1.40;78.87;98797.16;5059871;28;20040;-84
2023/01/21 09:36:30;;;;;;;16.88;8.93;;;;;;;1.27;78.74;98799.91;5054770;28;20036;-84
2023/01/21 09:38:57;;;;;;;19.23;9.13;;;;;;;1.39;79.28;98805.03;5061421;28;20044;-84
2023/01/21 09:41:24;;;;;;;19.50;10.10;;;;;;;1.22;79.00;98807.22;5054715;28;20055;-83
2023/01/21 09:44:21;;;;;;;17.00;8.10;;;;;;;1.12;79.23;98808.88;5060560;28;20039;-84
2023/01/21 09:47:21;;;;;;;9.98;6.50;;;;;;;0.89;77.80;98813.28;5055964;28;20437;-83
2023/01/21 09:50:04;;;;;;;11.27;6.83;;;;;;;0.58;76.88;98794.19;5058717;28;20048;-83
2023/01/21 09:52:36;;;;;;;13.50;6.55;;;;;;;0.60;77.84;98807.84;5056466;28;20074;-84
2023/01/21 09:55:05;;;;;;;14.32;6.72;;;;;;;0.80;78.08;98808.84;5059208;28;20044;-83
2023/01/21 09:58:13;;;;;;;11.40;5.97;;;;;;;0.98;76.89;98798.81;5078902;28;20398;-83
2023/01/21 10:01:21;;;;;;;10.18;5.60;;;;;;;0.98;75.75;98804.00;5079598;28;20043;-84
2023/01/21 10:04:44;;;;;;;12.07;5.97;;;;;;;0.87;75.04;98817.75;5074631;28;20028;-83
2023/01/21 10:07:24;;;;;;;10.13;5.45;;;;;;;1.00;76.36;98809.84;5077035;28;20032;-83
2023/01/21 10:10:18;;;;;;;9.95;5.53;;;;;;;1.02;76.08;98829.47;5076892;28;20118;-83
2023/01/21 10:13:33;;;;;;;11.43;5.82;;;;;;;0.93;75.46;98834.53;5079081;28;20043;-83
2023/01/21 10:16:16;;;;;;;9.48;5.35;;;;;;;0.68;75.28;98826.13;5077178;28;20086;-83
2023/01/21 10:18:47;;;;;;;10.95;5.40;;;;;;;0.72;76.45;98821.53;5075503;28;20131;-83
2023/01/21 10:21:34;;;;;;;12.98;6.25;;;;;;;0.80;77.15;98820.00;5061657;28;20040;-83
2023/01/21 10:24:16;;;;;;;11.25;5.97;;;;;;;0.80;76.69;98820.00;5079727;28;20029;-83
2023/01/21 10:26:46;;;;;;;9.75;5.15;;;;;;;0.69;75.88;98827.75;5077370;28;20036;-83
2023/01/21 10:29:18;;;;;;;10.48;5.95;;;;;;;0.91;75.99;98831.25;5077887;28;20043;-83
2023/01/21 10:31:49;;;;;;;;;;;;;;;0.86;76.08;98823.03;5075882;28;20115;-83
2023/01/21 10:34:18;;;;;;;12.38;6.20;;;;;;;0.89;77.17;98822.78;5077827;28;20244;-83
2023/01/21 10:36:59;;;;;;;13.60;6.18;;;;;;;0.87;76.42;98824.69;5081953;28;20035;-83
2023/01/21 10:39:49;;;;;;;;;;;;;;;0.95;75.61;98817.97;5075550;28;20055;-84
2023/01/21 10:42:44;;;;;;;8.77;4.78;;;;;;;0.98;74.74;98816.91;5079415;28;19999;-83
2023/01/21 10:45:23;;;;;;;12.05;5.90;;;;;;;1.10;75.44;98813.34;5078577;28;20032;-83
2023/01/21 10:48:25;;;;;;;11.65;6.93;;;;;;;1.02;74.25;98818.28;5076893;28;20056;-83
2023/01/21 10:51:11;;;;;;;9.55;4.47;;;;;;;0.91;73.37;98810.59;5074460;28;20500;-82
2023/01/21 10:54:24;;;;;;;13.48;6.05;;;;;;;1.26;73.95;98824.13;5076264;28;20072;-83
2023/01/21 10:56:55;;;;;;;12.43;5.82;;;;;;;1.38;73.03;98817.16;4985521;28;20045;-83
2023/01/21 10:59:27;;;;;;;;;;;;;;;1.29;71.94;98810.94;4990136;28;20035;-83
2023/01/21 11:02:39;;;;;;;10.52;5.13;;;;;;;1.45;72.64;98807.13;5043187;28;19920;-84
2023/01/21 11:05:06;;;;;;;10.88;4.78;;;;;;;1.37;72.21;98817.25;5080171;28;20539;-84
2023/01/21 11:07:41;;;;;;;13.75;4.97;;;;;;;1.37;72.01;98818.06;5075320;28;20032;-84
2023/01/21 11:10:07;;;;;;;8.43;4.75;;;;;;;1.03;72.81;98801.88;5085010;28;20110;-83
2023/01/21 11:12:33;;;;;;;10.70;5.93;;;;;;;1.21;73.43;98821.06;5080007;28;20036;-83
2023/01/21 11:15:13;;;;;;;10.63;5.45;;;;;;;1.32;73.53;98818.44;5079528;28;20514;-83
2023/01/21 11:17:43;;;;;;;9.20;5.80;;;;;;;1.30;72.72;98822.91;5078167;28;20547;-83
2023/01/21 11:20:26;;;;;;;10.80;6.05;;;;;;;1.36;72.32;98821.59;5082846;28;20037;-83
2023/01/21 11:22:52;;;;;;;10.10;4.90;;;;;;;1.37;72.56;98812.88;5074391;28;20039;-83
2023/01/21 11:25:35;;;;;;;11.10;5.78;;;;;;;1.39;72.00;98810.22;5077545;28;20468;-84
2023/01/21 11:28:02;;;;;;;12.80;5.80;;;;;;;1.30;72.18;98812.56;5078687;28;20040;-83
2023/01/21 11:30:32;;;;;;;9.77;4.90;;;;;;;1.49;72.94;98813.66;5077492;28;20111;-83
2023/01/21 11:33:23;;;;;;;7.57;3.92;;;;;;;1.42;72.51;98810.75;5077371;28;20120;-83
2023/01/21 11:35:51;;;;;;;9.23;5.07;;;;;;;1.50;72.04;98799.78;5080747;28;20032;-83
2023/01/21 11:38:34;;;;;;;10.02;5.40;;;;;;;1.42;73.22;98800.41;5068851;28;20428;-82
2023/01/21 11:41:12;;;;;;;9.43;5.28;;;;;;;1.29;72.05;98800.59;5079756;28;20039;-83
2023/01/21 11:43:48;;;;;;;8.05;4.40;;;;;;;1.36;73.08;98800.09;5082151;28;20032;-83
2023/01/21 11:46:26;;;;;;;9.32;4.90;;;;;;;1.05;72.90;98797.41;5081671;28;20497;-83
2023/01/21 11:49:21;;;;;;;8.68;4.88;;;;;;;1.15;73.39;98792.31;5081259;28;20672;-83
2023/01/21 11:51:47;;;;;;;10.63;5.20;;;;;;;1.30;72.69;98791.91;5075211;28;20375;-83